Time;durP1;ratioP1;P1;durP2;ratioP2;P2;SDS_P1;SDS_P2;PMS_P1;PMS_P2;Temp;Humidity;BMP_temperature;BMP_pressure;BME280_temperature;BME280_humidity;BME280_pressure;Samples;Min_cycle;Max_cycle;Signal;HPM_P1;HPM_P2
2022/01/25 00:24:18;;;;;;;373.33;173.90;;;4.20;99.90;;;;;;4921882;29;20051;-83
2022/01/25 00:32:09;;;;;;;374.92;175.90;;;4.20;99.90;;;;;;4927676;29;20060;-83
2022/01/25 00:34:35;;;;;;;373.70;174.75;;;4.20;99.90;;;;;;4925787;29;20039;-82
2022/01/25 00:37:01;;;;;;;375.80;174.50;;;4.20;99.90;;;;;;4926283;29;20126;-82
2022/01/25 00:39:26;;;;;;;374.58;175.30;;;4.20;99.90;;;;;;4925613;29;20187;-82
2022/01/25 00:41:52;;;;;;;373.45;175.35;;;4.20;99.90;;;;;;4925436;29;20170;-81
2022/01/25 00:44:21;;;;;;;373.10;175.13;;;4.20;99.90;;;;;;4929677;29;20176;-83
2022/01/25 00:46:47;;;;;;;366.38;172.32;;;4.10;99.90;;;;;;4932654;29;20504;-83
2022/01/25 00:49:24;;;;;;;372.17;175.95;;;4.20;99.90;;;;;;4911324;29;20148;-83
2022/01/25 00:52:04;;;;;;;370.58;174.40;;;4.20;99.90;;;;;;4927040;29;20078;-82
2022/01/25 00:54:40;;;;;;;364.38;171.60;;;4.20;99.90;;;;;;4924550;29;20050;-82
2022/01/25 00:57:07;;;;;;;370.02;173.95;;;4.00;99.90;;;;;;4928051;29;20044;-82
2022/01/25 00:59:32;;;;;;;369.58;173.70;;;4.70;99.90;;;;;;4925061;29;20047;-83
2022/01/25 01:02:02;;;;;;;370.17;174.98;;;4.10;99.90;;;;;;4926205;29;20050;-83
2022/01/25 01:04:30;;;;;;;360.52;170.10;;;4.40;99.90;;;;;;4926731;29;20048;-84
2022/01/25 01:06:56;;;;;;;367.42;173.57;;;5.30;99.90;;;;;;4924845;29;20062;-83
2022/01/25 01:09:23;;;;;;;365.25;172.32;;;4.20;99.90;;;;;;4925622;29;20390;-83
2022/01/25 01:12:03;;;;;;;364.67;173.02;;;6.40;99.90;;;;;;4926615;29;20059;-83
2022/01/25 01:29:05;;;;;;;366.88;172.50;;;4.10;99.90;;;;;;4927310;29;20048;-83
2022/01/25 01:34:13;;;;;;;369.73;173.95;;;4.10;99.90;;;;;;4926533;29;20059;-83
2022/01/25 01:44:28;;;;;;;370.17;173.35;;;4.10;99.90;;;;;;4924360;29;20492;-83
2022/01/25 01:47:05;;;;;;;;;;;4.10;99.90;;;;;;4927208;29;20400;-83
2022/01/25 01:49:38;;;;;;;361.65;171.70;;;4.10;99.90;;;;;;4925818;29;19931;-82
2022/01/25 01:52:04;;;;;;;362.50;170.95;;;4.10;99.90;;;;;;4924503;29;20044;-82
2022/01/25 01:54:30;;;;;;;363.90;170.80;;;4.10;99.90;;;;;;4923711;29;20077;-83
2022/01/25 01:56:56;;;;;;;365.92;171.70;;;4.10;99.90;;;;;;4925188;29;20063;-83
2022/01/25 01:59:22;;;;;;;366.00;172.77;;;4.10;99.90;;;;;;4922809;29;20133;-82
2022/01/25 02:01:50;;;;;;;368.13;172.88;;;4.10;99.90;;;;;;4925418;29;20079;-82
2022/01/25 02:04:17;;;;;;;370.45;174.75;;;4.10;99.90;;;;;;4923831;29;20069;-82
2022/01/25 02:06:45;;;;;;;368.50;173.85;;;4.10;99.90;;;;;;4924398;29;20083;-83
2022/01/25 02:09:12;;;;;;;368.77;174.00;;;4.10;99.90;;;;;;4924349;29;20126;-83
2022/01/25 02:11:39;;;;;;;368.20;172.55;;;4.10;99.90;;;;;;4930816;29;20059;-83
2022/01/25 02:14:08;;;;;;;367.65;172.77;;;4.10;99.90;;;;;;4929498;29;20047;-82
2022/01/25 02:24:39;;;;;;;367.10;175.48;;;4.10;99.90;;;;;;4922642;29;20429;-83
2022/01/25 02:27:07;;;;;;;366.50;173.82;;;4.80;99.90;;;;;;4923988;29;20043;-83
2022/01/25 02:29:33;;;;;;;362.88;170.80;;;4.10;99.90;;;;;;4928193;29;20051;-83
2022/01/25 02:31:59;;;;;;;365.63;173.18;;;4.10;99.90;;;;;;4927793;29;20066;-83
2022/01/25 02:34:26;;;;;;;363.00;171.00;;;4.00;99.90;;;;;;4925572;29;20460;-83
2022/01/25 02:36:59;;;;;;;365.98;172.90;;;4.10;99.90;;;;;;4928115;29;20044;-82
2022/01/25 02:39:25;;;;;;;369.52;173.27;;;4.20;99.90;;;;;;4922727;29;20527;-83
2022/01/25 02:41:52;;;;;;;365.35;173.27;;;4.00;99.90;;;;;;4925401;29;20131;-82
2022/01/25 02:44:24;;;;;;;366.40;172.75;;;4.00;99.90;;;;;;4923179;29;20127;-82
2022/01/25 02:49:30;;;;;;;364.77;173.02;;;4.00;99.90;;;;;;4923503;29;20056;-82
2022/01/25 02:52:00;;;;;;;364.27;171.20;;;4.00;99.90;;;;;;4924110;29;20047;-82
2022/01/25 02:54:27;;;;;;;365.55;173.10;;;4.00;99.90;;;;;;4924024;29;20315;-82
2022/01/25 02:56:53;;;;;;;365.30;172.32;;;4.00;99.90;;;;;;4922759;29;20443;-83
2022/01/25 02:59:19;;;;;;;367.70;173.88;;;4.00;99.90;;;;;;4922602;29;20043;-82
2022/01/25 03:01:47;;;;;;;364.65;172.73;;;4.00;99.90;;;;;;4924073;29;20044;-82
2022/01/25 03:04:14;;;;;;;364.40;172.68;;;4.00;99.90;;;;;;4923798;29;20157;-83
2022/01/25 03:06:42;;;;;;;367.90;173.38;;;4.00;99.90;;;;;;4923561;29;20081;-83
2022/01/25 03:09:12;;;;;;;366.25;173.32;;;4.40;99.90;;;;;;4924252;29;20054;-83
2022/01/25 03:11:42;;;;;;;364.58;172.10;;;4.00;99.90;;;;;;4922757;29;20636;-83
2022/01/25 03:14:10;;;;;;;366.55;173.20;;;4.00;99.90;;;;;;4921854;29;20051;-83
2022/01/25 03:22:18;;;;;;;363.60;170.77;;;4.00;99.90;;;;;;4899828;29;20051;-82
2022/01/25 03:24:46;;;;;;;370.00;173.05;;;4.00;99.90;;;;;;4921051;29;20051;-82
2022/01/25 06:02:06;;;;;;;361.38;171.23;;;4.00;99.90;;;;;;5415003;23;20059;-83
2022/01/25 06:04:31;;;;;;;358.00;168.88;;;3.90;99.90;;;;;;4897879;29;20044;-83
2022/01/25 06:24:17;;;;;;;372.02;173.20;;;4.00;99.90;;;;;;4941735;23;20464;-84
2022/01/25 06:57:47;;;;;;;360.05;167.57;;;4.20;99.90;;;;;;5117053;23;20058;-84
2022/01/25 07:05:52;;;;;;;369.50;172.20;;;4.30;99.90;;;;;;5098878;23;20044;-83
2022/01/25 07:09:21;;;;;;;369.48;170.77;;;4.30;99.90;;;;;;4909847;29;20449;-82
2022/01/25 07:34:46;;;;;;;374.77;174.93;;;4.40;99.90;;;;;;5566516;23;20052;-83
2022/01/25 07:37:12;;;;;;;366.60;170.10;;;4.40;99.90;;;;;;4909214;29;20051;-90
2022/01/25 07:39:38;;;;;;;374.38;174.13;;;4.40;99.90;;;;;;4932098;29;20080;-96
2022/01/25 07:42:04;;;;;;;369.67;171.45;;;4.40;99.90;;;;;;4926132;29;20051;-96
2022/01/25 07:54:51;;;;;;;365.58;170.65;;;4.40;99.90;;;;;;5633633;23;20131;-94
2022/01/25 07:57:17;;;;;;;372.85;172.18;;;4.40;99.90;;;;;;4928831;29;20044;-94
2022/01/25 07:59:42;;;;;;;375.00;175.18;;;4.40;99.90;;;;;;4930269;29;20050;-92
2022/01/25 08:02:13;;;;;;;372.52;173.13;;;4.40;99.90;;;;;;4922367;29;20075;-94
2022/01/25 08:04:40;;;;;;;375.27;173.98;;;4.40;99.90;;;;;;4926746;29;20294;-94
2022/01/25 08:07:05;;;;;;;370.77;170.38;;;4.40;99.90;;;;;;4922690;29;20047;-96
2022/01/25 08:09:31;;;;;;;369.83;172.48;;;4.40;99.90;;;;;;4942462;29;20050;-94
2022/01/25 08:11:56;;;;;;;365.05;169.30;;;4.40;99.90;;;;;;4915180;29;20596;-95
2022/01/25 08:14:22;;;;;;;374.25;172.75;;;4.40;99.90;;;;;;4913891;29;20058;-93
2022/01/25 08:16:50;;;;;;;364.35;168.00;;;4.40;99.90;;;;;;4920127;29;20044;-94
2022/01/25 08:19:17;;;;;;;373.10;173.32;;;4.40;99.90;;;;;;4909442;29;20111;-94
2022/01/25 08:21:44;;;;;;;367.83;171.27;;;4.40;99.90;;;;;;4922446;29;20090;-95
2022/01/25 08:24:11;;;;;;;372.45;173.90;;;4.50;99.90;;;;;;4921607;29;20130;-94
2022/01/25 08:26:37;;;;;;;371.70;172.90;;;4.40;99.90;;;;;;4935425;29;20090;-95
2022/01/25 08:29:04;;;;;;;368.90;172.43;;;4.40;99.90;;;;;;4926576;29;20057;-96
2022/01/25 08:31:31;;;;;;;371.50;172.80;;;4.50;99.90;;;;;;4932014;29;20050;-92
2022/01/25 08:33:57;;;;;;;370.65;172.73;;;4.50;99.90;;;;;;4916802;29;20047;-95
2022/01/25 08:36:23;;;;;;;365.38;170.55;;;4.50;99.90;;;;;;4941679;29;20107;-96
2022/01/25 08:38:49;;;;;;;363.17;169.23;;;4.50;99.90;;;;;;4927158;29;20075;-96
2022/01/25 08:41:17;;;;;;;371.65;173.32;;;4.50;99.90;;;;;;4930986;29;20044;-95
2022/01/25 08:43:43;;;;;;;369.85;173.23;;;4.40;99.90;;;;;;4927161;29;20166;-95
2022/01/25 08:46:08;;;;;;;368.13;171.07;;;4.50;99.90;;;;;;4937609;29;20484;-94
2022/01/25 08:48:34;;;;;;;368.17;170.57;;;4.40;99.90;;;;;;4925643;29;20063;-90
2022/01/25 08:51:01;;;;;;;370.77;172.50;;;4.40;99.90;;;;;;4928998;29;20039;-95
2022/01/25 08:53:26;;;;;;;371.75;173.07;;;4.40;99.90;;;;;;4936823;29;20079;-94
2022/01/25 08:55:52;;;;;;;374.67;174.25;;;4.40;99.90;;;;;;4922122;29;20067;-96
2022/01/25 08:58:18;;;;;;;370.10;171.48;;;4.40;99.90;;;;;;4925741;29;20119;-94
2022/01/25 09:00:44;;;;;;;372.15;172.70;;;4.40;99.90;;;;;;4917449;29;20058;-95
2022/01/25 09:03:11;;;;;;;369.60;172.00;;;4.40;99.90;;;;;;4909615;29;20052;-96
2022/01/25 09:05:37;;;;;;;367.58;171.48;;;4.30;99.90;;;;;;4933084;29;20050;-95
2022/01/25 09:08:05;;;;;;;363.85;169.88;;;4.30;99.90;;;;;;4955154;29;20126;-94
2022/01/25 09:10:30;;;;;;;372.42;173.77;;;4.30;99.90;;;;;;4939356;29;20055;-95
2022/01/25 09:12:56;;;;;;;367.60;173.00;;;4.30;99.90;;;;;;4937776;29;20044;-91
2022/01/25 09:15:22;;;;;;;370.90;173.02;;;4.30;99.90;;;;;;4940029;29;20046;-94
2022/01/25 09:17:48;;;;;;;366.30;171.02;;;4.30;99.90;;;;;;4952900;29;20070;-92
2022/01/25 09:20:15;;;;;;;374.33;173.48;;;4.30;99.90;;;;;;4948580;29;20086;-94
2022/01/25 09:22:40;;;;;;;374.20;174.02;;;4.30;99.90;;;;;;4945477;28;20032;-96
2022/01/25 09:25:06;;;;;;;372.23;174.15;;;4.30;99.90;;;;;;4951467;29;20090;-94
2022/01/25 09:27:32;;;;;;;369.73;171.95;;;4.30;99.90;;;;;;4947204;29;20106;-94
2022/01/25 09:29:57;;;;;;;368.20;171.65;;;4.30;99.90;;;;;;4930302;29;20051;-92
2022/01/25 09:32:23;;;;;;;371.00;173.57;;;4.30;99.90;;;;;;4945304;29;20051;-90
2022/01/25 09:34:49;;;;;;;373.55;173.07;;;5.00;99.90;;;;;;4925575;29;20060;-92
2022/01/25 09:37:15;;;;;;;370.05;171.35;;;4.30;99.90;;;;;;4936722;29;20419;-93
2022/01/25 09:39:41;;;;;;;375.55;174.55;;;4.30;99.90;;;;;;4927547;29;20069;-95
2022/01/25 09:42:11;;;;;;;374.98;173.88;;;4.30;99.90;;;;;;4926976;29;20066;-93
2022/01/25 09:44:38;;;;;;;374.65;173.80;;;4.30;99.90;;;;;;4932187;29;20047;-91
2022/01/25 09:47:04;;;;;;;373.20;172.38;;;4.30;99.90;;;;;;4927844;29;20269;-93
2022/01/25 09:49:31;;;;;;;375.23;174.00;;;4.30;99.90;;;;;;4916828;29;20035;-89
2022/01/25 09:52:06;;;;;;;373.65;174.63;;;4.30;99.90;;;;;;4921661;29;20044;-93
2022/01/25 09:54:34;;;;;;;367.95;171.48;;;4.30;99.90;;;;;;4938313;29;20056;-92
2022/01/25 09:57:01;;;;;;;375.27;175.30;;;4.50;99.90;;;;;;4917565;29;20062;-89
2022/01/25 09:59:27;;;;;;;372.60;172.82;;;4.30;99.90;;;;;;4922970;29;20051;-91
2022/01/25 10:01:55;;;;;;;371.48;171.50;;;4.30;99.90;;;;;;4926687;29;20051;-91
2022/01/25 10:04:50;;;;;;;377.63;174.90;;;4.40;99.90;;;;;;4924066;29;20515;-90
2022/01/25 10:07:15;;;;;;;373.02;172.10;;;4.40;99.90;;;;;;4913134;29;20056;-90
2022/01/25 10:09:42;;;;;;;374.20;172.80;;;4.30;99.90;;;;;;4936071;29;20066;-90
2022/01/25 10:12:22;;;;;;;377.52;174.13;;;4.40;99.90;;;;;;4942679;29;20051;-90
2022/01/25 10:14:59;;;;;;;372.88;172.55;;;4.40;99.90;;;;;;4919456;29;20058;-88
2022/01/25 10:17:33;;;;;;;377.33;174.68;;;4.40;99.90;;;;;;4945297;29;20043;-90
2022/01/25 10:19:59;;;;;;;371.60;172.00;;;4.40;99.90;;;;;;4923100;29;20058;-89
2022/01/25 10:22:25;;;;;;;373.73;173.10;;;4.30;99.90;;;;;;4924871;29;20079;-90
2022/01/25 10:24:51;;;;;;;375.60;173.63;;;4.30;99.90;;;;;;4923644;29;20051;-90
2022/01/25 10:27:21;;;;;;;375.27;174.27;;;4.30;99.90;;;;;;4923897;29;20546;-90
2022/01/25 10:29:48;;;;;;;373.33;171.85;;;4.30;99.90;;;;;;4933873;29;20102;-90
2022/01/25 10:32:15;;;;;;;370.92;171.98;;;4.30;99.90;;;;;;4923638;29;20106;-88
2022/01/25 10:34:48;;;;;;;372.65;172.57;;;4.30;99.90;;;;;;4923681;29;20040;-89
2022/01/25 10:37:20;;;;;;;375.65;173.32;;;4.30;99.90;;;;;;4941017;29;20064;-90
2022/01/25 10:39:48;;;;;;;374.15;174.15;;;4.30;99.90;;;;;;4923002;29;20388;-90
2022/01/25 10:42:26;;;;;;;366.88;169.90;;;4.30;99.90;;;;;;4922034;29;20124;-88
2022/01/25 10:44:56;;;;;;;370.05;170.55;;;4.30;99.90;;;;;;4940471;29;20119;-89
2022/01/25 10:47:52;;;;;;;370.83;170.70;;;4.30;99.90;;;;;;4930712;29;20043;-90
2022/01/25 10:50:22;;;;;;;375.65;173.95;;;4.30;99.90;;;;;;4901067;29;20067;-90
2022/01/25 10:53:15;;;;;;;376.83;173.60;;;4.30;99.90;;;;;;4920885;29;20052;-91
2022/01/25 10:55:46;;;;;;;376.65;173.45;;;4.30;99.90;;;;;;4945947;29;21111;-90
2022/01/25 10:58:13;;;;;;;372.20;170.38;;;4.30;99.90;;;;;;4940213;29;20051;-87
2022/01/25 11:00:45;;;;;;;377.20;175.07;;;4.30;99.90;;;;;;4941202;29;20043;-87
2022/01/25 11:03:25;;;;;;;375.77;174.90;;;4.30;99.90;;;;;;4935253;29;20124;-86
2022/01/25 11:05:51;;;;;;;374.73;172.95;;;4.40;99.90;;;;;;4931956;29;20047;-86
2022/01/25 11:08:20;;;;;;;376.52;172.70;;;4.40;99.90;;;;;;4931148;29;20058;-87
2022/01/25 11:10:54;;;;;;;375.63;172.57;;;4.30;99.90;;;;;;4932431;29;20044;-87
2022/01/25 11:13:34;;;;;;;378.50;174.10;;;4.40;99.90;;;;;;4933846;29;20067;-86
2022/01/25 11:16:02;;;;;;;380.67;175.50;;;4.40;99.90;;;;;;4924842;29;20134;-86
2022/01/25 11:18:30;;;;;;;379.67;175.75;;;4.40;99.90;;;;;;4931979;29;20542;-87
2022/01/25 11:20:57;;;;;;;378.75;174.52;;;4.40;99.90;;;;;;4934052;29;20040;-87
2022/01/25 11:23:23;;;;;;;376.77;172.63;;;4.40;99.90;;;;;;4931933;29;20050;-87
2022/01/25 11:25:49;;;;;;;375.98;172.93;;;4.40;99.90;;;;;;4937009;29;20035;-88
2022/01/25 11:28:16;;;;;;;378.45;174.00;;;4.40;99.90;;;;;;4931260;29;20155;-88
2022/01/25 11:30:44;;;;;;;375.83;172.02;;;4.40;99.90;;;;;;4931252;29;20171;-86
2022/01/25 11:33:11;;;;;;;373.50;172.18;;;4.40;99.90;;;;;;4930715;29;20035;-86
2022/01/25 11:35:38;;;;;;;379.77;175.07;;;4.40;99.90;;;;;;4931513;29;20156;-89
2022/01/25 11:38:06;;;;;;;377.05;174.43;;;4.40;99.90;;;;;;4932342;29;20277;-86
2022/01/25 11:40:41;;;;;;;377.42;174.02;;;4.40;99.90;;;;;;4936123;29;20043;-87
2022/01/25 11:43:16;;;;;;;379.10;174.80;;;4.40;99.90;;;;;;4930615;29;20059;-87
2022/01/25 11:45:49;;;;;;;379.42;174.25;;;4.40;99.90;;;;;;4931006;29;20047;-88
2022/01/25 11:48:21;;;;;;;375.48;172.05;;;4.40;99.90;;;;;;4934880;29;20047;-86
2022/01/25 11:50:46;;;;;;;374.85;171.82;;;4.40;99.90;;;;;;4941719;29;20404;-87
2022/01/25 11:53:16;;;;;;;377.55;174.32;;;4.40;99.90;;;;;;4932348;29;20043;-87
2022/01/25 11:55:51;;;;;;;382.30;174.95;;;4.40;99.90;;;;;;4922073;29;20056;-88
2022/01/25 11:58:30;;;;;;;380.10;174.07;;;4.40;99.90;;;;;;4931559;29;20078;-84
2022/01/25 12:00:58;;;;;;;368.25;173.73;;;4.40;99.90;;;;;;4937425;29;20123;-87
2022/01/25 12:03:33;;;;;;;360.15;169.18;;;4.40;99.90;;;;;;4946855;29;20036;-88
2022/01/25 12:06:08;;;;;;;361.25;170.15;;;4.40;99.90;;;;;;4922378;29;20070;-88
2022/01/25 12:09:08;;;;;;;356.05;167.90;;;4.40;99.90;;;;;;4938920;29;20535;-90
2022/01/25 12:11:45;;;;;;;359.80;169.32;;;4.40;99.90;;;;;;4926268;29;20063;-89
2022/01/25 12:14:15;;;;;;;358.52;168.57;;;4.40;99.90;;;;;;4932002;29;20051;-89
2022/01/25 12:16:44;;;;;;;364.33;170.90;;;4.40;99.90;;;;;;4937909;29;20074;-88
2022/01/25 12:19:15;;;;;;;357.88;168.23;;;4.40;99.90;;;;;;4932379;29;20059;-88
2022/01/25 12:21:52;;;;;;;369.95;174.68;;;4.40;99.90;;;;;;4935642;29;20114;-90
2022/01/25 12:24:39;;;;;;;362.85;170.43;;;4.40;99.90;;;;;;4935126;29;20131;-88
2022/01/25 12:27:19;;;;;;;363.23;171.10;;;4.40;99.90;;;;;;4935273;29;20043;-89
2022/01/25 12:29:47;;;;;;;359.23;169.40;;;4.40;99.90;;;;;;4935669;29;20065;-89
2022/01/25 12:32:20;;;;;;;361.48;169.80;;;4.40;99.90;;;;;;4941899;29;20056;-87
2022/01/25 12:35:07;;;;;;;364.73;172.02;;;4.40;99.90;;;;;;4933464;29;20087;-87
2022/01/25 12:37:42;;;;;;;363.05;171.68;;;4.40;99.90;;;;;;4933419;29;20098;-87
2022/01/25 12:40:30;;;;;;;366.00;173.02;;;4.40;99.90;;;;;;4920420;29;20464;-86
2022/01/25 12:42:57;;;;;;;363.65;172.18;;;4.40;99.90;;;;;;4932696;29;20104;-86
2022/01/25 12:45:26;;;;;;;364.80;172.45;;;4.60;99.90;;;;;;4931743;29;20063;-86
2022/01/25 12:47:54;;;;;;;362.98;172.00;;;4.40;99.90;;;;;;4934045;29;20126;-85
2022/01/25 12:50:20;;;;;;;365.02;172.60;;;4.40;99.90;;;;;;4933400;29;20048;-87
2022/01/25 12:52:47;;;;;;;364.95;172.15;;;4.40;99.90;;;;;;4933036;29;20083;-87
2022/01/25 12:55:13;;;;;;;359.83;169.45;;;4.40;99.90;;;;;;4928433;29;20052;-86
2022/01/25 12:57:46;;;;;;;362.33;170.48;;;4.50;99.90;;;;;;4915781;29;20190;-88
2022/01/25 13:00:13;;;;;;;363.33;171.38;;;4.40;99.90;;;;;;4933101;29;20131;-87
2022/01/25 13:02:39;;;;;;;365.77;172.90;;;4.40;99.90;;;;;;4934173;29;20395;-87
2022/01/25 13:05:25;;;;;;;368.10;172.98;;;4.40;99.90;;;;;;4920459;29;20050;-87
2022/01/25 13:07:50;;;;;;;357.27;168.88;;;4.40;99.90;;;;;;4914946;29;20044;-87
2022/01/25 13:10:24;;;;;;;365.67;172.45;;;4.40;99.90;;;;;;4915216;29;20046;-87
2022/01/25 13:13:10;;;;;;;365.95;172.45;;;4.40;99.90;;;;;;4914155;29;20051;-87
2022/01/25 13:15:52;;;;;;;364.50;172.13;;;4.40;99.90;;;;;;4914468;29;20461;-87
2022/01/25 13:18:18;;;;;;;364.88;171.55;;;4.40;99.90;;;;;;4913904;29;20040;-87
2022/01/25 13:20:47;;;;;;;368.65;172.85;;;4.40;99.90;;;;;;4915075;29;20153;-88
2022/01/25 13:23:13;;;;;;;369.08;173.23;;;4.40;99.90;;;;;;4914648;29;20068;-87
2022/01/25 13:31:21;;;;;;;367.02;172.68;;;4.40;99.90;;;;;;4914388;29;20056;-87
2022/01/25 13:33:48;;;;;;;366.73;172.48;;;4.40;99.90;;;;;;4926900;29;20047;-87
2022/01/25 13:36:16;;;;;;;363.63;170.48;;;4.40;99.90;;;;;;4914382;29;20143;-87
2022/01/25 13:38:42;;;;;;;368.25;172.13;;;4.40;99.90;;;;;;4922078;29;20441;-86
2022/01/25 13:46:29;;;;;;;369.35;173.25;;;4.40;99.90;;;;;;4931615;29;20234;-88
2022/01/25 13:49:11;;;;;;;368.65;172.07;;;4.40;99.90;;;;;;4928313;29;20052;-87
2022/01/25 13:51:41;;;;;;;;;;;4.40;99.90;;;;;;4916680;29;20079;-88
2022/01/25 13:54:10;;;;;;;366.42;171.98;;;4.40;99.90;;;;;;4927415;29;19962;-88
2022/01/25 13:56:36;;;;;;;370.48;173.32;;;4.40;99.90;;;;;;4916282;29;20083;-87
2022/01/25 13:59:04;;;;;;;371.05;173.88;;;4.50;99.90;;;;;;4913392;29;20048;-87
2022/01/25 14:01:32;;;;;;;367.45;171.98;;;4.40;99.90;;;;;;4913647;29;20051;-87
2022/01/25 14:04:08;;;;;;;371.42;173.85;;;4.40;99.90;;;;;;4913717;29;20500;-87
2022/01/25 14:06:42;;;;;;;369.25;172.25;;;4.70;99.90;;;;;;4915421;29;20056;-87
2022/01/25 14:09:13;;;;;;;368.55;171.75;;;4.40;99.90;;;;;;4912732;29;20103;-87
2022/01/25 14:22:48;;;;;;;363.50;170.80;;;4.40;99.90;;;;;;4943573;29;20264;-87
2022/01/25 14:25:36;;;;;;;368.38;172.30;;;4.40;99.90;;;;;;4947799;29;20127;-88
2022/01/25 14:28:05;;;;;;;372.08;175.23;;;4.40;99.90;;;;;;4947382;29;20071;-88
2022/01/25 14:30:33;;;;;;;369.02;173.02;;;4.40;99.90;;;;;;4941064;29;20075;-87
2022/01/25 14:33:12;;;;;;;371.33;174.93;;;4.40;99.90;;;;;;4935461;29;20052;-87
2022/01/25 14:35:48;;;;;;;372.20;174.50;;;4.40;99.90;;;;;;4937877;29;20133;-87
2022/01/25 14:38:16;;;;;;;370.00;173.32;;;4.40;99.90;;;;;;4934005;29;20057;-87
2022/01/25 14:40:58;;;;;;;370.73;173.90;;;4.40;99.90;;;;;;4933518;29;20052;-87
2022/01/25 14:43:30;;;;;;;362.50;170.23;;;4.30;99.90;;;;;;4930759;29;20047;-86
2022/01/25 14:46:23;;;;;;;370.40;174.27;;;4.40;99.90;;;;;;4933154;29;20079;-87
2022/01/25 14:49:11;;;;;;;372.27;175.57;;;4.30;99.90;;;;;;4933098;29;20075;-87
2022/01/25 14:51:43;;;;;;;363.13;170.85;;;4.30;99.90;;;;;;4930634;29;20055;-87
2022/01/25 14:54:13;;;;;;;367.20;172.52;;;4.30;99.90;;;;;;4931969;29;20062;-87
2022/01/25 14:56:49;;;;;;;369.40;172.98;;;4.30;99.90;;;;;;4931957;29;20084;-88
2022/01/25 14:59:27;;;;;;;369.42;173.38;;;4.30;99.90;;;;;;4931962;29;20099;-87
2022/01/25 15:01:58;;;;;;;370.23;174.63;;;4.30;99.90;;;;;;4932043;29;20149;-88
2022/01/25 15:04:25;;;;;;;375.30;175.27;;;4.30;99.90;;;;;;4932651;29;20047;-87
2022/01/25 15:06:51;;;;;;;366.80;172.88;;;4.30;99.90;;;;;;4933090;29;20103;-88
2022/01/25 15:09:17;;;;;;;372.80;175.75;;;4.30;99.90;;;;;;4932323;29;20051;-87
2022/01/25 15:11:44;;;;;;;368.67;172.93;;;4.30;99.90;;;;;;4931079;29;20047;-87
2022/01/25 15:14:17;;;;;;;367.70;172.50;;;4.30;99.90;;;;;;4930790;29;20443;-87
2022/01/25 15:16:43;;;;;;;367.48;172.10;;;4.30;99.90;;;;;;4931503;29;20047;-87
2022/01/25 15:19:09;;;;;;;367.15;171.77;;;4.30;99.90;;;;;;4930065;29;20035;-87
2022/01/25 15:21:35;;;;;;;369.52;172.68;;;4.30;99.90;;;;;;4915228;29;20401;-88
2022/01/25 15:24:01;;;;;;;371.77;173.95;;;4.30;99.90;;;;;;4911831;29;20092;-87
2022/01/25 15:26:35;;;;;;;369.35;172.70;;;4.30;99.90;;;;;;4911399;29;20500;-87
2022/01/25 15:29:03;;;;;;;369.77;173.65;;;4.30;99.90;;;;;;4928951;29;20202;-87
2022/01/25 15:31:29;;;;;;;369.27;172.43;;;4.30;99.90;;;;;;4937382;29;20075;-88
2022/01/25 15:33:55;;;;;;;371.95;173.90;;;4.30;99.90;;;;;;4935505;29;20043;-86
2022/01/25 15:36:21;;;;;;;366.33;170.65;;;4.30;99.90;;;;;;4934493;29;20050;-91
2022/01/25 15:38:49;;;;;;;364.58;171.55;;;4.30;99.90;;;;;;4937980;29;20059;-90
2022/01/25 15:41:16;;;;;;;360.95;169.85;;;4.30;99.90;;;;;;4934977;29;20082;-91
2022/01/25 15:43:56;;;;;;;360.30;169.48;;;4.30;99.90;;;;;;4939544;29;20121;-89
2022/01/25 15:46:28;;;;;;;367.85;173.73;;;4.30;99.90;;;;;;4932912;29;20067;-90
2022/01/25 15:48:55;;;;;;;364.92;172.32;;;4.30;99.90;;;;;;4933703;29;20142;-90
2022/01/25 15:51:22;;;;;;;362.48;171.25;;;4.20;99.90;;;;;;4940550;29;20122;-88
2022/01/25 15:53:48;;;;;;;357.83;168.55;;;4.20;99.90;;;;;;4942369;29;20054;-91
2022/01/25 15:56:15;;;;;;;364.27;171.65;;;4.20;99.90;;;;;;4937891;29;20059;-90
2022/01/25 15:58:44;;;;;;;361.73;170.60;;;4.20;99.90;;;;;;4931603;29;20408;-87
2022/01/25 16:01:11;;;;;;;366.05;172.50;;;4.20;99.90;;;;;;4938092;29;20511;-87
2022/01/25 16:03:37;;;;;;;363.02;171.32;;;4.20;99.90;;;;;;4943353;29;20051;-87
2022/01/25 16:06:04;;;;;;;361.70;171.60;;;4.20;99.90;;;;;;4941853;29;20435;-89
2022/01/25 16:08:31;;;;;;;357.15;168.63;;;4.20;99.90;;;;;;4931780;29;20078;-88
2022/01/25 16:10:59;;;;;;;360.67;171.13;;;4.20;99.90;;;;;;4931374;29;20036;-89
2022/01/25 16:13:25;;;;;;;362.13;171.60;;;4.10;99.90;;;;;;4942594;29;20669;-88
2022/01/25 16:15:51;;;;;;;361.20;170.85;;;4.10;99.90;;;;;;4931680;29;20043;-89
2022/01/25 16:18:17;;;;;;;360.60;170.65;;;4.10;99.90;;;;;;4931290;29;20070;-87
2022/01/25 16:20:43;;;;;;;361.90;171.52;;;4.10;99.90;;;;;;4936829;29;20048;-86
2022/01/25 16:23:10;;;;;;;359.15;169.68;;;4.10;99.90;;;;;;4920644;29;20130;-88
2022/01/25 16:25:36;;;;;;;356.52;168.45;;;4.10;99.90;;;;;;4933118;29;20066;-89
2022/01/25 16:28:06;;;;;;;361.02;170.07;;;4.10;99.90;;;;;;4929296;29;20146;-89
2022/01/25 16:30:35;;;;;;;362.30;170.82;;;4.10;99.90;;;;;;4912921;29;20040;-88
2022/01/25 16:33:01;;;;;;;362.52;171.35;;;4.00;99.90;;;;;;4927434;29;20039;-89
2022/01/25 16:35:26;;;;;;;359.77;170.05;;;4.10;99.90;;;;;;4931369;29;20043;-88
2022/01/25 16:37:53;;;;;;;363.45;172.15;;;4.10;99.90;;;;;;4933588;29;20085;-88
2022/01/25 16:40:19;;;;;;;365.33;172.57;;;4.10;99.90;;;;;;4935458;29;20074;-86
2022/01/25 16:42:47;;;;;;;361.92;170.05;;;4.60;99.90;;;;;;4930195;29;20039;-87
2022/01/25 16:45:15;;;;;;;363.17;171.70;;;4.10;99.90;;;;;;4931939;29;20048;-87
2022/01/25 16:47:46;;;;;;;363.70;171.10;;;4.10;99.90;;;;;;4931490;29;20047;-86
2022/01/25 16:50:14;;;;;;;367.40;173.68;;;4.00;99.90;;;;;;4945154;29;20435;-87
2022/01/25 16:52:40;;;;;;;360.63;169.90;;;4.10;99.90;;;;;;4932397;29;20106;-88
2022/01/25 16:55:08;;;;;;;363.40;172.38;;;4.10;99.90;;;;;;4948350;29;20134;-87
2022/01/25 16:57:35;;;;;;;365.05;172.40;;;4.00;99.90;;;;;;4948691;29;20047;-88
2022/01/25 17:00:04;;;;;;;366.27;173.77;;;4.00;99.90;;;;;;4930606;29;20062;-88
2022/01/25 17:02:30;;;;;;;363.05;170.70;;;4.00;99.90;;;;;;4945718;29;20047;-87
2022/01/25 17:04:55;;;;;;;361.88;170.48;;;4.00;99.90;;;;;;4917612;29;20048;-88
2022/01/25 17:07:21;;;;;;;368.15;174.25;;;4.00;99.90;;;;;;4929898;29;20461;-88
2022/01/25 17:09:47;;;;;;;366.52;173.77;;;4.00;99.90;;;;;;4932268;29;20160;-87
2022/01/25 17:12:13;;;;;;;363.48;170.45;;;4.00;99.90;;;;;;4933358;29;20260;-88
2022/01/25 17:14:38;;;;;;;367.52;172.77;;;4.00;99.90;;;;;;4925976;29;20044;-87
2022/01/25 17:17:04;;;;;;;365.45;171.95;;;4.00;99.90;;;;;;4930932;29;20065;-86
2022/01/25 17:19:30;;;;;;;365.15;172.10;;;4.00;99.90;;;;;;4936541;29;20055;-87
2022/01/25 17:21:56;;;;;;;364.23;171.27;;;4.00;99.90;;;;;;4935137;29;20051;-87
2022/01/25 17:24:24;;;;;;;367.08;173.70;;;4.00;99.90;;;;;;4939266;29;20051;-87
2022/01/25 17:26:50;;;;;;;364.63;171.95;;;4.00;99.90;;;;;;4936860;29;20035;-86
2022/01/25 17:29:16;;;;;;;363.65;171.38;;;4.00;99.90;;;;;;4935301;29;20057;-90
2022/01/25 17:31:42;;;;;;;364.92;172.05;;;4.00;99.90;;;;;;4946238;29;20110;-89
2022/01/25 17:34:09;;;;;;;366.02;172.55;;;4.00;99.90;;;;;;4940402;29;20048;-87
2022/01/25 17:36:35;;;;;;;362.48;171.43;;;3.90;99.90;;;;;;4949597;29;20055;-89
2022/01/25 17:39:00;;;;;;;358.27;168.85;;;4.00;99.90;;;;;;4939998;29;20048;-89
2022/01/25 17:41:26;;;;;;;359.40;169.32;;;4.00;99.90;;;;;;4938548;29;20144;-88
2022/01/25 17:43:51;;;;;;;365.35;173.13;;;3.90;99.90;;;;;;4938982;29;20078;-89
2022/01/25 17:46:17;;;;;;;360.83;170.10;;;3.90;99.90;;;;;;4938696;29;20111;-89
2022/01/25 17:48:43;;;;;;;364.02;171.55;;;3.90;99.90;;;;;;4937318;29;20040;-86
2022/01/25 17:51:11;;;;;;;361.48;170.27;;;3.90;99.90;;;;;;4934786;29;20097;-87
2022/01/25 17:53:37;;;;;;;367.55;173.98;;;3.90;99.90;;;;;;4940152;29;20050;-86
2022/01/25 17:56:03;;;;;;;360.50;169.60;;;3.90;99.90;;;;;;4941973;29;20051;-86
2022/01/25 18:03:40;;;;;;;379.30;185.93;;;3.80;99.90;;;;;;5994335;23;20019;-89
2022/01/25 18:06:08;;;;;;;363.52;174.77;;;3.90;99.90;;;;;;4941008;29;20531;-88
2022/01/25 18:08:34;;;;;;;358.63;171.20;;;3.90;99.90;;;;;;4908836;29;20056;-81